Terminal Aerodrome Forecast
Issued by NWS Missoula, MT

Home | Current Version | Previous Version | Text Only | Print | Product List | Glossary On
Versions: 1 2 3 4 5 6 7 8 9 10 11 12 13 14
000
FTUS45 KMSO 011120
TAFGPI
TAF
KGPI 011120Z 0112/0212 VRB05KT P6SM SCT070 BKN090
     FM012100 20015KT P6SM SCT100
     FM020300 22004KT P6SM BKN250=

USA.gov is the U.S. government's official web portal to all federal, state and local government web resources and services.